Airfield :
LOGIN :

Register | Disclaimer

   EN    FR    IT 

 










Legend :    VFR   Marginal VFR   IFR   Intensive IFR   Very Intensive IFR
Visi :
Ceiling :
>= 8 km
>= 3000ft
5 to 8 km
1000 to 3000 ft
1500m to 5 km
500 to 1000 ft
800 to 1500m
200 to 500 ft
< 800m
< 200 ft
Symbols :   Thunderstorms  Fog  Heavy snow  Heavy precipitations  Wind > 20 kt
SIGMETs :     Misc.  Thunderstorms  Icing  Turbulence  Mountain Waves  Volcanic Ashes







- Airport Elevation : 28 ft
- IATA code : SOZ
- Download approach charts


LFKS - Solenzara

CURRENT METAR :
  • 200530Z AUTO 33008KT 290V020 CAVOK 15/09 Q1015

EXPIRED METARs :
  • 200500Z AUTO 35010KT 310V010 CAVOK 12/07 Q1015
  • 200430Z AUTO 32003KT 270V360 CAVOK 12/07 Q1013
  • 200400Z AUTO VRB01KT CAVOK 12/07 Q1013
  • 200330Z AUTO 32003KT CAVOK 12/07 Q1013
  • 200300Z AUTO 35003KT 290V020 CAVOK 12/07 Q1013

TAF TAF LFKS
Valid from the 20 at 03:00 until the 21 at 03:00 UTC


200200Z 2003/2103 35008KT 9999 FEW020CB
BECMG 2006/2008 02010KT CAVOK
BECMG 2010/2012 12010KT
BECMG 2018/2020 27008KT
No reported NOTAMs for that airfield.



MET'MAP, your aeronautical weather chart ! - Copyright ORBIFLY December 2007 - Disclaimer

ORBIFLY MET'MAP TEAM :

Programming & Development : Alexandra Zaïnal
Concept & Development : Baudouin d'Aumeries
Co-Development & Prog : Marc-Olivier Méhu
Technical & hardware support : Manuel Goepfert

Contact : metmap@orbifly.com




SOURCES & CREDITS :

   NOAA